Time,TemperatureF,DewpointF,PressureIn,WindDirection,WindDirectionDegrees,WindSpeedMPH,WindSpeedGustMPH,Humidity,HourlyPrecipIn,Conditions,Clouds,dailyrainin,SoftwareType,DateUTC
2013-08-18 00:00:00,69.3,57.9,30.16,East,98,1.0,9.0,67,0.00,,---,0.00,VWS V14.01,2013-08-18 04:00:00,
2013-08-18 00:10:00,69.2,57.8,30.15,SSE,152,1.0,8.0,67,0.00,,---,0.00,VWS V14.01,2013-08-18 04:10:00,
2013-08-18 00:20:00,69.2,58.2,30.15,East,94,5.0,11.0,68,0.00,,---,0.00,VWS V14.01,2013-08-18 04:20:00,
2013-08-18 00:30:00,69.2,57.8,30.15,SE,144,8.0,11.0,67,0.00,,---,0.00,VWS V14.01,2013-08-18 04:30:00,
2013-08-18 00:40:00,69.2,57.8,30.14,SE,126,0.0,13.0,67,0.00,,---,0.00,VWS V14.01,2013-08-18 04:40:00,
2013-08-18 00:50:00,69.2,57.8,30.14,South,180,4.0,11.0,67,0.00,,---,0.00,VWS V14.01,2013-08-18 04:50:00,
2013-08-18 08:51:00,65.0,59.7,30.17,ESE,119,0.0,0.0,83,0.00,,---,0.00,VWS V14.01,2013-08-18 12:51:00,
2013-08-18 08:52:00,65.0,60.0,30.18,ESE,112,0.0,0.0,84,0.00,,---,0.00,VWS V14.01,2013-08-18 12:52:00,
2013-08-18 08:57:00,65.1,60.5,30.17,ESE,119,0.0,0.0,85,0.01,,---,0.01,VWS V14.01,2013-08-18 12:57:00,
2013-08-18 09:00:00,65.1,60.5,30.17,ESE,103,0.0,0.0,85,0.01,,---,0.01,VWS V14.01,2013-08-18 13:00:00,
2013-08-18 09:02:00,65.0,60.0,30.17,East,94,1.0,1.0,84,0.00,,---,0.01,VWS V14.01,2013-08-18 13:02:00,
2013-08-18 09:07:00,65.1,60.5,30.17,East,93,0.0,1.0,85,0.00,,---,0.01,VWS V14.01,2013-08-18 13:07:00,
2013-08-18 09:10:00,65.1,60.5,30.17,East,89,0.0,1.0,85,0.00,,---,0.01,VWS V14.01,2013-08-18 13:10:00,
2013-08-18 09:12:00,65.2,60.6,30.17,ENE,67,0.0,0.0,85,0.00,,---,0.01,VWS V14.01,2013-08-18 13:12:00,
2013-08-18 09:17:00,65.4,60.5,30.17,ESE,113,0.0,1.0,84,0.00,,---,0.01,VWS V14.01,2013-08-18 13:17:00,
2013-08-18 09:20:00,65.4,60.1,30.17,SE,133,0.0,1.0,83,0.00,,---,0.01,VWS V14.01,2013-08-18 13:20:00,
2013-08-18 09:22:00,65.4,60.5,30.17,ESE,117,0.0,2.0,84,0.00,,---,0.01,VWS V14.01,2013-08-18 13:22:00,
2013-08-18 09:27:00,65.3,60.0,30.17,ESE,115,4.0,5.0,83,0.00,,---,0.01,VWS V14.01,2013-08-18 13:27:00,
2013-08-18 09:30:00,65.3,60.0,30.17,ESE,122,0.0,5.0,83,0.00,,---,0.01,VWS V14.01,2013-08-18 13:30:00,
2013-08-18 09:32:00,65.4,60.5,30.17,SSE,152,0.0,6.0,84,0.00,,---,0.01,VWS V14.01,2013-08-18 13:32:00,
2013-08-18 09:37:00,65.6,60.3,30.16,SE,127,0.0,6.0,83,0.00,,---,0.01,VWS V14.01,2013-08-18 13:37:00,
2013-08-18 09:40:00,65.6,60.3,30.16,SE,136,1.0,6.0,83,0.00,,---,0.01,VWS V14.01,2013-08-18 13:40:00,
2013-08-18 09:42:00,65.8,60.2,30.16,SE,145,2.0,6.0,82,0.00,,---,0.01,VWS V14.01,2013-08-18 13:42:00,
2013-08-18 09:47:00,65.8,60.2,30.16,ESE,123,1.0,6.0,82,0.00,,---,0.01,VWS V14.01,2013-08-18 13:47:00,
2013-08-18 09:50:00,65.9,60.3,30.16,ESE,118,0.0,6.0,82,0.00,,---,0.01,VWS V14.01,2013-08-18 13:50:00,
2013-08-18 09:52:00,66.2,60.9,30.16,SE,144,0.0,2.0,83,0.00,,---,0.01,VWS V14.01,2013-08-18 13:52:00,
2013-08-18 09:57:00,66.3,60.7,30.16,SSE,156,0.0,6.0,82,0.00,,---,0.01,VWS V14.01,2013-08-18 13:57:00,
2013-08-18 10:00:00,66.4,60.7,30.16,South,188,1.0,6.0,82,0.00,,---,0.01,VWS V14.01,2013-08-18 14:00:00,
2013-08-18 10:02:00,66.6,60.6,30.17,East,93,0.0,5.0,81,0.00,,---,0.01,VWS V14.01,2013-08-18 14:02:00,
2013-08-18 10:07:00,66.7,60.7,30.16,SSE,157,2.0,5.0,81,0.00,,---,0.01,VWS V14.01,2013-08-18 14:07:00,
2013-08-18 10:10:00,66.7,60.3,30.17,SE,128,1.0,5.0,80,0.00,,---,0.01,VWS V14.01,2013-08-18 14:10:00,
2013-08-18 10:12:00,66.9,60.9,30.17,SE,135,0.0,2.0,81,0.00,,---,0.01,VWS V14.01,2013-08-18 14:12:00,
2013-08-18 10:17:00,67.0,60.6,30.17,SSE,156,2.0,4.0,80,0.00,,---,0.01,VWS V14.01,2013-08-18 14:17:00,
2013-08-18 10:20:00,67.0,60.6,30.17,ESE,120,5.0,5.0,80,0.00,,---,0.01,VWS V14.01,2013-08-18 14:20:00,
2013-08-18 10:22:00,67.0,60.6,30.17,SE,144,2.0,6.0,80,0.00,,---,0.01,VWS V14.01,2013-08-18 14:22:00,
2013-08-18 10:27:00,67.1,60.4,30.17,SE,136,0.0,6.0,79,0.00,,---,0.01,VWS V14.01,2013-08-18 14:27:00,
2013-08-18 10:30:00,67.1,60.7,30.17,SE,138,0.0,6.0,80,0.00,,---,0.01,VWS V14.01,2013-08-18 14:30:00,
2013-08-18 10:32:00,67.1,60.7,30.17,SSE,156,0.0,2.0,80,0.00,,---,0.01,VWS V14.01,2013-08-18 14:32:00,
2013-08-18 10:37:00,67.1,60.4,30.17,SE,141,2.0,4.0,79,0.00,,---,0.01,VWS V14.01,2013-08-18 14:37:00,
2013-08-18 10:40:00,67.1,60.4,30.17,East,100,1.0,4.0,79,0.00,,---,0.01,VWS V14.01,2013-08-18 14:40:00,
2013-08-18 10:42:00,67.3,60.6,30.17,SE,144,1.0,4.0,79,0.00,,---,0.01,VWS V14.01,2013-08-18 14:42:00,
2013-08-18 10:47:00,67.3,60.6,30.17,SE,128,2.0,7.0,79,0.00,,---,0.01,VWS V14.01,2013-08-18 14:47:00,
2013-08-18 10:50:00,67.3,60.2,30.17,SE,142,5.0,7.0,78,0.00,,---,0.01,VWS V14.01,2013-08-18 14:50:00,
2013-08-18 10:52:00,67.2,60.5,30.17,South,172,1.0,7.0,79,0.00,,---,0.01,VWS V14.01,2013-08-18 14:52:00,
2013-08-18 10:57:00,67.5,60.4,30.17,East,101,2.0,7.0,78,0.00,,---,0.01,VWS V14.01,2013-08-18 14:57:00,
2013-08-18 11:00:00,67.5,60.8,30.17,SE,144,2.0,7.0,79,0.00,,---,0.01,VWS V14.01,2013-08-18 15:00:00,
2013-08-18 11:02:00,67.6,60.5,30.18,ESE,123,0.0,6.0,78,0.00,,---,0.01,VWS V14.01,2013-08-18 15:02:00,
2013-08-18 11:07:00,67.8,60.7,30.18,SE,136,1.0,6.0,78,0.00,,---,0.01,VWS V14.01,2013-08-18 15:07:00,
2013-08-18 11:10:00,67.8,60.7,30.18,ESE,115,0.0,6.0,78,0.00,,---,0.01,VWS V14.01,2013-08-18 15:10:00,
2013-08-18 11:12:00,68.0,60.5,30.17,SE,127,2.0,5.0,77,0.00,,---,0.01,VWS V14.01,2013-08-18 15:12:00,
2013-08-18 11:17:00,68.2,60.7,30.17,SE,142,5.0,7.0,77,0.00,,---,0.01,VWS V14.01,2013-08-18 15:17:00,
2013-08-18 11:20:00,68.3,60.5,30.17,South,175,5.0,7.0,76,0.00,,---,0.01,VWS V14.01,2013-08-18 15:20:00,
2013-08-18 11:22:00,68.4,60.2,30.17,SSE,148,8.0,9.0,75,0.00,,---,0.01,VWS V14.01,2013-08-18 15:22:00,
2013-08-18 11:27:00,68.5,60.3,30.17,SE,136,4.0,9.0,75,0.00,,---,0.01,VWS V14.01,2013-08-18 15:27:00,
2013-08-18 11:30:00,68.6,60.7,30.17,SE,136,4.0,9.0,76,0.00,,---,0.01,VWS V14.01,2013-08-18 15:30:00,
2013-08-18 11:32:00,69.0,60.8,30.17,SE,128,0.0,8.0,75,0.00,,---,0.01,VWS V14.01,2013-08-18 15:32:00,
2013-08-18 11:37:00,69.5,60.9,30.16,South,171,5.0,9.0,74,0.00,,---,0.01,VWS V14.01,2013-08-18 15:37:00,
2013-08-18 11:40:00,69.5,60.9,30.16,SSE,168,5.0,9.0,74,0.00,,---,0.01,VWS V14.01,2013-08-18 15:40:00,
2013-08-18 11:42:00,69.7,61.0,30.16,SE,146,5.0,8.0,74,0.00,,---,0.01,VWS V14.01,2013-08-18 15:42:00,
2013-08-18 11:47:00,69.7,61.0,30.17,SSE,150,5.0,8.0,74,0.00,,---,0.01,VWS V14.01,2013-08-18 15:47:00,
2013-08-18 11:50:00,69.7,61.0,30.17,SE,142,5.0,8.0,74,0.00,,---,0.01,VWS V14.01,2013-08-18 15:50:00,
2013-08-18 11:52:00,69.8,60.8,30.16,SSE,150,5.0,8.0,73,0.00,,---,0.01,VWS V14.01,2013-08-18 15:52:00,
2013-08-18 11:57:00,70.0,61.0,30.16,SE,134,8.0,11.0,73,0.00,,---,0.01,VWS V14.01,2013-08-18 15:57:00,
2013-08-18 12:00:00,70.0,61.0,30.16,SE,125,7.0,11.0,73,0.00,,---,0.01,VWS V14.01,2013-08-18 16:00:00,
2013-08-18 12:02:00,70.0,61.3,30.16,SE,146,4.0,11.0,74,0.00,,---,0.01,VWS V14.01,2013-08-18 16:02:00,
2013-08-18 12:07:00,70.6,61.5,30.16,SE,146,4.0,11.0,73,0.00,,---,0.01,VWS V14.01,2013-08-18 16:07:00,
2013-08-18 12:10:00,70.6,61.9,30.16,SE,127,4.0,11.0,74,0.00,,---,0.01,VWS V14.01,2013-08-18 16:10:00,
2013-08-18 12:12:00,70.8,62.1,30.15,SE,140,6.0,9.0,74,0.00,,---,0.01,VWS V14.01,2013-08-18 16:12:00,
2013-08-18 12:17:00,71.0,61.5,30.15,SSE,148,5.0,9.0,72,0.00,,---,0.01,VWS V14.01,2013-08-18 16:17:00,
2013-08-18 12:20:00,71.0,61.5,30.15,SSE,157,5.0,9.0,72,0.00,,---,0.01,VWS V14.01,2013-08-18 16:20:00,
2013-08-18 12:23:00,71.0,61.1,30.16,SSE,148,1.0,7.0,71,0.00,,---,0.01,VWS V14.01,2013-08-18 16:23:00,
2013-08-18 12:28:00,71.4,61.5,30.16,SSE,163,2.0,7.0,71,0.00,,---,0.01,VWS V14.01,2013-08-18 16:28:00,
2013-08-18 12:30:00,71.4,61.9,30.16,SE,145,2.0,7.0,72,0.00,,---,0.01,VWS V14.01,2013-08-18 16:30:00,
2013-08-18 12:33:00,72.0,62.1,30.15,ESE,113,1.0,5.0,71,0.00,,---,0.01,VWS V14.01,2013-08-18 16:33:00,
2013-08-18 12:38:00,72.4,62.5,30.15,SSE,154,0.0,5.0,71,0.00,,---,0.01,VWS V14.01,2013-08-18 16:38:00,
2013-08-18 12:40:00,72.6,63.5,30.15,SSE,161,2.0,5.0,73,0.00,,---,0.01,VWS V14.01,2013-08-18 16:40:00,
2013-08-18 12:43:00,72.6,62.3,30.15,ESE,103,0.0,6.0,70,0.00,,---,0.01,VWS V14.01,2013-08-18 16:43:00,
2013-08-18 12:48:00,72.6,61.9,30.15,SE,140,1.0,6.0,69,0.00,,---,0.01,VWS V14.01,2013-08-18 16:48:00,
2013-08-18 12:50:00,72.6,61.9,30.15,SSE,149,1.0,6.0,69,0.00,,---,0.01,VWS V14.01,2013-08-18 16:50:00,
2013-08-18 12:53:00,72.4,62.1,30.15,SSE,155,5.0,6.0,70,0.00,,---,0.01,VWS V14.01,2013-08-18 16:53:00,
2013-08-18 12:58:00,72.2,62.3,30.15,SSW,203,1.0,6.0,71,0.00,,---,0.01,VWS V14.01,2013-08-18 16:58:00,
2013-08-18 13:00:00,72.2,62.3,30.15,SW,217,1.0,6.0,71,0.00,,---,0.01,VWS V14.01,2013-08-18 17:00:00,
2013-08-18 13:03:00,72.3,62.0,30.15,SE,133,2.0,5.0,70,0.00,,---,0.01,VWS V14.01,2013-08-18 17:03:00,
2013-08-18 13:08:00,72.4,62.1,30.15,SSE,152,4.0,5.0,70,0.00,,---,0.01,VWS V14.01,2013-08-18 17:08:00,
2013-08-18 13:10:00,72.3,62.0,30.15,SE,143,2.0,5.0,70,0.00,,---,0.01,VWS V14.01,2013-08-18 17:10:00,
2013-08-18 13:13:00,72.4,62.9,30.14,SSE,149,4.0,5.0,72,0.00,,---,0.01,VWS V14.01,2013-08-18 17:13:00,
2013-08-18 13:18:00,72.8,62.5,30.15,SE,141,1.0,5.0,70,0.00,,---,0.01,VWS V14.01,2013-08-18 17:18:00,
2013-08-18 13:20:00,72.8,62.5,30.15,ESE,105,0.0,5.0,70,0.00,,---,0.01,VWS V14.01,2013-08-18 17:20:00,
2013-08-18 13:23:00,72.6,62.3,30.15,SSE,160,1.0,2.0,70,0.00,,---,0.01,VWS V14.01,2013-08-18 17:23:00,
2013-08-18 13:28:00,72.8,62.5,30.15,SSE,148,4.0,6.0,70,0.00,,---,0.01,VWS V14.01,2013-08-18 17:28:00,
2013-08-18 13:30:00,72.8,62.5,30.15,SE,128,2.0,6.0,70,0.00,,---,0.01,VWS V14.01,2013-08-18 17:30:00,
2013-08-18 13:33:00,72.6,62.3,30.15,SSE,157,4.0,6.0,70,0.00,,---,0.01,VWS V14.01,2013-08-18 17:33:00,
2013-08-18 13:38:00,72.7,62.4,30.15,SE,136,1.0,6.0,70,0.00,,---,0.01,VWS V14.01,2013-08-18 17:38:00,
2013-08-18 13:40:00,72.7,62.0,30.15,South,179,1.0,6.0,69,0.00,,---,0.01,VWS V14.01,2013-08-18 17:40:00,
2013-08-18 13:43:00,72.9,62.1,30.15,SSE,161,1.0,5.0,69,0.00,,---,0.01,VWS V14.01,2013-08-18 17:43:00,
2013-08-18 13:48:00,73.1,62.7,30.14,SE,137,2.0,5.0,70,0.00,,---,0.01,VWS V14.01,2013-08-18 17:48:00,
2013-08-18 13:50:00,73.1,62.3,30.14,South,175,4.0,5.0,69,0.00,,---,0.01,VWS V14.01,2013-08-18 17:50:00,
2013-08-18 13:53:00,73.3,62.9,30.14,SSW,210,1.0,4.0,70,0.00,,---,0.01,VWS V14.01,2013-08-18 17:53:00,
2013-08-18 13:58:00,73.5,63.5,30.14,East,98,0.0,5.0,71,0.00,,---,0.01,VWS V14.01,2013-08-18 17:58:00,
2013-08-18 14:00:00,73.5,63.5,30.14,ESE,118,0.0,5.0,71,0.00,,---,0.01,VWS V14.01,2013-08-18 18:00:00,
2013-08-18 14:03:00,73.6,62.4,30.14,ESE,107,0.0,4.0,68,0.00,,---,0.01,VWS V14.01,2013-08-18 18:03:00,
2013-08-18 14:08:00,73.8,62.6,30.14,SSW,208,1.0,4.0,68,0.00,,---,0.01,VWS V14.01,2013-08-18 18:08:00,
2013-08-18 14:10:00,73.7,62.5,30.14,SSW,202,0.0,4.0,68,0.00,,---,0.01,VWS V14.01,2013-08-18 18:10:00,
2013-08-18 14:13:00,73.6,62.8,30.14,South,188,0.0,3.0,69,0.00,,---,0.01,VWS V14.01,2013-08-18 18:13:00,
2013-08-18 14:18:00,73.9,62.7,30.14,SSW,211,0.0,4.0,68,0.00,,---,0.01,VWS V14.01,2013-08-18 18:18:00,
2013-08-18 14:20:00,73.9,62.7,30.14,SSW,212,0.0,4.0,68,0.00,,---,0.01,VWS V14.01,2013-08-18 18:20:00,
2013-08-18 14:23:00,74.6,63.3,30.14,South,173,0.0,0.0,68,0.00,,---,0.01,VWS V14.01,2013-08-18 18:23:00,
2013-08-18 14:28:00,74.8,63.1,30.14,NE,49,1.0,1.0,67,0.00,,---,0.01,VWS V14.01,2013-08-18 18:28:00,
2013-08-18 14:30:00,74.8,63.1,30.14,NNE,19,2.0,3.0,67,0.00,,---,0.01,VWS V14.01,2013-08-18 18:30:00,
2013-08-18 14:33:00,74.3,63.1,30.14,NE,38,1.0,6.0,68,0.00,,---,0.01,VWS V14.01,2013-08-18 18:33:00,
2013-08-18 14:38:00,74.0,62.4,30.14,ESE,122,1.0,6.0,67,0.00,,---,0.01,VWS V14.01,2013-08-18 18:38:00,
2013-08-18 14:40:00,74.0,62.4,30.14,SE,127,0.0,6.0,67,0.00,,---,0.01,VWS V14.01,2013-08-18 18:40:00,
2013-08-18 14:43:00,74.4,62.7,30.13,SSW,205,0.0,0.0,67,0.00,,---,0.01,VWS V14.01,2013-08-18 18:43:00,
2013-08-18 14:48:00,74.9,63.2,30.13,NNW,330,1.0,2.0,67,0.00,,---,0.01,VWS V14.01,2013-08-18 18:48:00,
2013-08-18 14:50:00,75.0,63.7,30.13,WNW,292,0.0,2.0,68,0.00,,---,0.01,VWS V14.01,2013-08-18 18:50:00,
2013-08-18 14:53:00,74.9,63.2,30.13,WNW,286,0.0,2.0,67,0.00,,---,0.01,VWS V14.01,2013-08-18 18:53:00,
2013-08-18 14:58:00,74.9,63.2,30.13,West,279,0.0,2.0,67,0.00,,---,0.01,VWS V14.01,2013-08-18 18:58:00,
2013-08-18 15:00:00,75.0,63.7,30.13,NNW,338,0.0,2.0,68,0.00,,---,0.01,VWS V14.01,2013-08-18 19:00:00,
2013-08-18 15:03:00,75.4,63.3,30.13,WSW,256,0.0,1.0,66,0.00,,---,0.01,VWS V14.01,2013-08-18 19:03:00,
2013-08-18 15:08:00,75.3,64.0,30.13,SSW,213,0.0,1.0,68,0.00,,---,0.01,VWS V14.01,2013-08-18 19:08:00,
2013-08-18 15:10:00,75.4,64.1,30.13,SSW,208,0.0,1.0,68,0.00,,---,0.01,VWS V14.01,2013-08-18 19:10:00,
2013-08-18 15:13:00,75.7,64.0,30.13,SW,219,0.0,1.0,67,0.00,,---,0.01,VWS V14.01,2013-08-18 19:13:00,
2013-08-18 15:18:00,75.6,63.0,30.13,SW,214,0.0,2.0,65,0.00,,---,0.01,VWS V14.01,2013-08-18 19:18:00,
2013-08-18 15:20:00,75.6,63.5,30.13,SSW,209,0.0,2.0,66,0.00,,---,0.01,VWS V14.01,2013-08-18 19:20:00,
2013-08-18 15:23:00,75.7,64.4,30.12,South,169,0.0,1.0,68,0.00,,---,0.01,VWS V14.01,2013-08-18 19:23:00,
2013-08-18 15:28:00,75.5,63.4,30.12,SE,142,2.0,2.0,66,0.00,,---,0.01,VWS V14.01,2013-08-18 19:28:00,
2013-08-18 15:30:00,75.4,63.3,30.12,SE,136,1.0,2.0,66,0.00,,---,0.01,VWS V14.01,2013-08-18 19:30:00,
2013-08-18 15:33:00,75.1,63.0,30.12,ESE,103,0.0,2.0,66,0.00,,---,0.01,VWS V14.01,2013-08-18 19:33:00,
2013-08-18 15:38:00,75.4,63.7,30.12,SW,226,2.0,2.0,67,0.00,,---,0.01,VWS V14.01,2013-08-18 19:38:00,
2013-08-18 15:40:00,75.3,63.6,30.12,WSW,246,1.0,2.0,67,0.00,,---,0.01,VWS V14.01,2013-08-18 19:40:00,
2013-08-18 15:43:00,75.2,63.5,30.12,SW,218,0.0,3.0,67,0.00,,---,0.01,VWS V14.01,2013-08-18 19:43:00,
2013-08-18 15:48:00,75.5,63.8,30.12,NE,54,0.0,3.0,67,0.00,,---,0.01,VWS V14.01,2013-08-18 19:48:00,
2013-08-18 15:50:00,75.5,63.8,30.12,NNE,22,0.0,3.0,67,0.00,,---,0.01,VWS V14.01,2013-08-18 19:50:00,
2013-08-18 15:53:00,75.5,63.8,30.12,SSW,205,2.0,3.0,67,0.00,,---,0.01,VWS V14.01,2013-08-18 19:53:00,
2013-08-18 15:58:00,75.2,63.5,30.12,West,273,1.0,3.0,67,0.00,,---,0.01,VWS V14.01,2013-08-18 19:58:00,
2013-08-18 16:00:00,75.2,64.3,30.12,WSW,242,0.0,3.0,69,0.00,,---,0.01,VWS V14.01,2013-08-18 20:00:00,
2013-08-18 16:03:00,75.2,64.3,30.12,WSW,242,0.0,1.0,69,0.00,,---,0.01,VWS V14.01,2013-08-18 20:03:00,
2013-08-18 16:08:00,75.1,63.8,30.12,SSW,195,0.0,1.0,68,0.00,,---,0.01,VWS V14.01,2013-08-18 20:08:00,
2013-08-18 16:10:00,75.1,63.8,30.12,SSW,195,0.0,1.0,68,0.00,,---,0.01,VWS V14.01,2013-08-18 20:10:00,
2013-08-18 16:13:00,75.4,64.9,30.12,WNW,303,0.0,1.0,70,0.00,,---,0.01,VWS V14.01,2013-08-18 20:13:00,
2013-08-18 16:18:00,75.6,65.1,30.12,NNW,333,1.0,2.0,70,0.00,,---,0.01,VWS V14.01,2013-08-18 20:18:00,
2013-08-18 16:20:00,75.6,65.1,30.12,NW,306,1.0,2.0,70,0.00,,---,0.01,VWS V14.01,2013-08-18 20:20:00,
2013-08-18 16:23:00,75.5,65.4,30.11,NNE,22,0.0,1.0,71,0.00,,---,0.01,VWS V14.01,2013-08-18 20:23:00,
2013-08-18 16:28:00,75.8,66.1,30.11,West,281,0.0,2.0,72,0.00,,---,0.01,VWS V14.01,2013-08-18 20:28:00,
2013-08-18 16:30:00,75.9,66.2,30.11,SSW,213,0.0,2.0,72,0.00,,---,0.01,VWS V14.01,2013-08-18 20:30:00,
2013-08-18 16:33:00,75.8,66.1,30.11,SW,232,0.0,4.0,72,0.00,,---,0.01,VWS V14.01,2013-08-18 20:33:00,
2013-08-18 16:38:00,75.6,65.5,30.11,East,84,0.0,4.0,71,0.00,,---,0.01,VWS V14.01,2013-08-18 20:38:00,
2013-08-18 16:40:00,75.5,65.8,30.11,East,82,0.0,4.0,72,0.00,,---,0.01,VWS V14.01,2013-08-18 20:40:00,
2013-08-18 16:43:00,75.5,66.2,30.11,West,263,0.0,3.0,73,0.00,,---,0.01,VWS V14.01,2013-08-18 20:43:00,
2013-08-18 16:48:00,75.6,66.3,30.11,West,264,0.0,3.0,73,0.00,,---,0.01,VWS V14.01,2013-08-18 20:48:00,
2013-08-18 16:50:00,75.6,66.3,30.11,East,84,0.0,3.0,73,0.00,,---,0.01,VWS V14.01,2013-08-18 20:50:00,
2013-08-18 16:53:00,75.5,65.4,30.11,SE,136,0.0,3.0,71,0.00,,---,0.01,VWS V14.01,2013-08-18 20:53:00,
2013-08-18 16:58:00,75.1,65.5,30.11,WSW,246,2.0,4.0,72,0.00,,---,0.01,VWS V14.01,2013-08-18 20:58:00,
2013-08-18 17:00:00,75.0,65.4,30.11,WSW,249,3.0,4.0,72,0.00,,---,0.01,VWS V14.01,2013-08-18 21:00:00,
2013-08-18 17:03:00,74.6,65.4,30.12,WSW,246,0.0,3.0,73,0.00,,---,0.01,VWS V14.01,2013-08-18 21:03:00,
2013-08-18 17:08:00,74.5,65.7,30.11,SW,225,0.0,3.0,74,0.00,,---,0.01,VWS V14.01,2013-08-18 21:08:00,
2013-08-18 17:10:00,74.5,65.7,30.11,South,172,0.0,3.0,74,0.00,,---,0.01,VWS V14.01,2013-08-18 21:10:00,
2013-08-18 17:13:00,74.5,65.3,30.11,WSW,252,0.0,0.0,73,0.00,,---,0.01,VWS V14.01,2013-08-18 21:13:00,
2013-08-18 17:18:00,74.7,65.5,30.11,NE,53,0.0,0.0,73,0.00,,---,0.01,VWS V14.01,2013-08-18 21:18:00,
2013-08-18 17:20:00,74.7,65.5,30.11,NE,53,0.0,0.0,73,0.00,,---,0.01,VWS V14.01,2013-08-18 21:20:00,
2013-08-18 17:23:00,74.8,65.6,30.10,SW,232,0.0,0.0,73,0.00,,---,0.01,VWS V14.01,2013-08-18 21:23:00,
2013-08-18 17:28:00,74.6,65.4,30.10,North,351,0.0,0.0,73,0.00,,---,0.01,VWS V14.01,2013-08-18 21:28:00,
2013-08-18 17:30:00,74.6,65.4,30.10,North,351,0.0,0.0,73,0.00,,---,0.01,VWS V14.01,2013-08-18 21:30:00,
2013-08-18 17:33:00,74.2,65.4,30.10,NW,323,0.0,3.0,74,0.00,,---,0.01,VWS V14.01,2013-08-18 21:33:00,
2013-08-18 17:38:00,73.7,65.3,30.10,NNE,28,1.0,3.0,75,0.00,,---,0.01,VWS V14.01,2013-08-18 21:38:00,
2013-08-18 17:40:00,73.7,65.3,30.10,NNE,13,0.0,3.0,75,0.00,,---,0.01,VWS V14.01,2013-08-18 21:40:00,
2013-08-18 17:43:00,73.5,65.5,30.10,NNW,342,0.0,0.0,76,0.00,,---,0.01,VWS V14.01,2013-08-18 21:43:00,
2013-08-18 17:48:00,73.3,64.9,30.10,NW,315,0.0,1.0,75,0.00,,---,0.01,VWS V14.01,2013-08-18 21:48:00,
2013-08-18 17:50:00,73.3,64.9,30.10,NW,315,0.0,1.0,75,0.00,,---,0.01,VWS V14.01,2013-08-18 21:50:00,
2013-08-18 17:53:00,73.3,65.3,30.09,NW,326,0.0,0.0,76,0.00,,---,0.01,VWS V14.01,2013-08-18 21:53:00,
2013-08-18 17:58:00,73.1,65.8,30.09,NNW,333,0.0,0.0,78,0.00,,---,0.01,VWS V14.01,2013-08-18 21:58:00,
2013-08-18 18:00:00,73.1,65.8,30.09,NW,310,0.0,0.0,78,0.00,,---,0.01,VWS V14.01,2013-08-18 22:00:00,
2013-08-18 18:03:00,72.8,65.9,30.09,NNW,339,0.0,1.0,79,0.00,,---,0.01,VWS V14.01,2013-08-18 22:03:00,
2013-08-18 18:08:00,72.6,65.7,30.10,West,259,0.0,1.0,79,0.00,,---,0.01,VWS V14.01,2013-08-18 22:08:00,
2013-08-18 18:10:00,72.6,65.7,30.10,West,259,0.0,1.0,79,0.00,,---,0.01,VWS V14.01,2013-08-18 22:10:00,
2013-08-18 18:13:00,72.4,65.9,30.09,NNW,330,0.0,0.0,80,0.00,,---,0.01,VWS V14.01,2013-08-18 22:13:00,
2013-08-18 18:18:00,72.2,65.7,30.09,NNW,330,0.0,0.0,80,0.00,,---,0.01,VWS V14.01,2013-08-18 22:18:00,
2013-08-18 18:20:00,72.2,65.7,30.09,NNW,330,0.0,0.0,80,0.00,,---,0.01,VWS V14.01,2013-08-18 22:20:00,
2013-08-18 18:23:00,72.1,65.9,30.09,NNW,329,0.0,0.0,81,0.00,,---,0.01,VWS V14.01,2013-08-18 22:23:00,
2013-08-18 18:28:00,72.1,65.9,30.09,NW,326,0.0,0.0,81,0.00,,---,0.01,VWS V14.01,2013-08-18 22:28:00,
2013-08-18 18:30:00,72.1,65.9,30.09,NW,325,0.0,0.0,81,0.00,,---,0.01,VWS V14.01,2013-08-18 22:30:00,
2013-08-18 18:33:00,72.2,67.1,30.09,WSW,242,0.0,0.0,84,0.00,,---,0.01,VWS V14.01,2013-08-18 22:33:00,
2013-08-18 18:38:00,72.1,67.0,30.09,WSW,242,0.0,0.0,84,0.00,,---,0.01,VWS V14.01,2013-08-18 22:38:00,
2013-08-18 18:40:00,72.1,67.0,30.09,WSW,242,0.0,0.0,84,0.00,,---,0.01,VWS V14.01,2013-08-18 22:40:00,
2013-08-18 18:43:00,72.0,66.9,30.09,WSW,242,0.0,0.0,84,0.00,,---,0.01,VWS V14.01,2013-08-18 22:43:00,
2013-08-18 18:48:00,71.8,66.7,30.09,West,273,0.0,0.0,84,0.00,,---,0.01,VWS V14.01,2013-08-18 22:48:00,
2013-08-18 18:50:00,71.8,66.7,30.09,WSW,246,1.0,1.0,84,0.00,,---,0.01,VWS V14.01,2013-08-18 22:50:00,
2013-08-18 18:53:00,71.6,65.8,30.09,WSW,254,0.0,1.0,82,0.00,,---,0.01,VWS V14.01,2013-08-18 22:53:00,
2013-08-18 18:58:00,71.7,66.3,30.09,WSW,257,0.0,1.0,83,0.00,,---,0.01,VWS V14.01,2013-08-18 22:58:00,
2013-08-18 19:00:00,71.7,65.9,30.09,WSW,257,0.0,1.0,82,0.00,,---,0.01,VWS V14.01,2013-08-18 23:00:00,
2013-08-18 19:03:00,71.8,66.4,30.09,ESE,123,0.0,0.0,83,0.00,,---,0.01,VWS V14.01,2013-08-18 23:03:00,
2013-08-18 19:08:00,71.7,65.9,30.09,SW,234,0.0,0.0,82,0.00,,---,0.01,VWS V14.01,2013-08-18 23:08:00,
2013-08-18 19:10:00,71.7,65.9,30.09,SW,233,0.0,0.0,82,0.00,,---,0.01,VWS V14.01,2013-08-18 23:10:00,
2013-08-18 19:13:00,71.6,65.8,30.09,NNW,344,0.0,1.0,82,0.00,,---,0.01,VWS V14.01,2013-08-18 23:13:00,
2013-08-18 19:18:00,71.5,66.1,30.10,SE,125,0.0,1.0,83,0.00,,---,0.01,VWS V14.01,2013-08-18 23:18:00,
2013-08-18 19:20:00,71.6,66.2,30.10,SSW,205,0.0,1.0,83,0.00,,---,0.01,VWS V14.01,2013-08-18 23:20:00,
2013-08-18 19:23:00,71.5,66.1,30.10,NNE,30,0.0,0.0,83,0.00,,---,0.01,VWS V14.01,2013-08-18 23:23:00,
2013-08-18 19:28:00,71.4,66.0,30.10,WNW,292,0.0,1.0,83,0.00,,---,0.01,VWS V14.01,2013-08-18 23:28:00,
2013-08-18 19:30:00,71.4,66.0,30.10,WNW,292,0.0,1.0,83,0.00,,---,0.01,VWS V14.01,2013-08-18 23:30:00,
2013-08-18 19:33:00,71.4,66.0,30.10,West,272,0.0,0.0,83,0.00,,---,0.01,VWS V14.01,2013-08-18 23:33:00,
2013-08-18 19:38:00,71.3,65.9,30.10,SW,226,0.0,0.0,83,0.00,,---,0.01,VWS V14.01,2013-08-18 23:38:00,
2013-08-18 19:40:00,71.3,65.9,30.10,SW,226,0.0,0.0,83,0.00,,---,0.01,VWS V14.01,2013-08-18 23:40:00,
2013-08-18 19:43:00,71.2,66.1,30.10,SW,230,0.0,0.0,84,0.00,,---,0.01,VWS V14.01,2013-08-18 23:43:00,
2013-08-18 19:48:00,71.2,66.1,30.10,SW,227,0.0,0.0,84,0.00,,---,0.01,VWS V14.01,2013-08-18 23:48:00,
2013-08-18 19:50:00,71.2,66.1,30.10,SW,227,0.0,0.0,84,0.00,,---,0.01,VWS V14.01,2013-08-18 23:50:00,
2013-08-18 19:53:00,71.0,65.9,30.10,SW,226,0.0,0.0,84,0.00,,---,0.01,VWS V14.01,2013-08-18 23:53:00,
2013-08-18 19:58:00,70.9,65.8,30.10,SW,228,0.0,0.0,84,0.00,,---,0.01,VWS V14.01,2013-08-18 23:58:00,
2013-08-18 20:00:00,70.9,65.8,30.10,SW,227,0.0,0.0,84,0.00,,---,0.01,VWS V14.01,2013-08-19 00:00:00,
2013-08-18 20:03:00,70.9,66.2,30.10,WSW,241,0.0,0.0,85,0.00,,---,0.01,VWS V14.01,2013-08-19 00:03:00,
2013-08-18 20:08:00,70.9,66.2,30.10,WSW,241,0.0,0.0,85,0.00,,---,0.01,VWS V14.01,2013-08-19 00:08:00,
2013-08-18 20:10:00,70.9,66.2,30.10,WSW,241,0.0,0.0,85,0.00,,---,0.01,VWS V14.01,2013-08-19 00:10:00,
2013-08-18 20:13:00,70.7,66.0,30.10,NW,310,0.0,0.0,85,0.00,,---,0.01,VWS V14.01,2013-08-19 00:13:00,
2013-08-18 20:18:00,70.6,66.2,30.10,WNW,288,0.0,0.0,86,0.00,,---,0.01,VWS V14.01,2013-08-19 00:18:00,
2013-08-18 20:20:00,70.5,66.1,30.10,WNW,288,0.0,0.0,86,0.00,,---,0.01,VWS V14.01,2013-08-19 00:20:00,
2013-08-18 20:23:00,70.4,66.0,30.10,NNE,13,0.0,0.0,86,0.00,,---,0.01,VWS V14.01,2013-08-19 00:23:00,
2013-08-18 20:28:00,70.4,66.0,30.10,WSW,253,0.0,0.0,86,0.00,,---,0.01,VWS V14.01,2013-08-19 00:28:00,
2013-08-18 20:30:00,70.4,66.0,30.10,WSW,253,0.0,0.0,86,0.00,,---,0.01,VWS V14.01,2013-08-19 00:30:00,
2013-08-18 20:33:00,70.3,66.2,30.10,WSW,253,0.0,0.0,87,0.00,,---,0.01,VWS V14.01,2013-08-19 00:33:00,
2013-08-18 20:38:00,70.1,66.1,30.10,WSW,252,0.0,0.0,87,0.00,,---,0.01,VWS V14.01,2013-08-19 00:38:00,
2013-08-18 20:40:00,70.1,66.1,30.10,WSW,252,0.0,0.0,87,0.00,,---,0.01,VWS V14.01,2013-08-19 00:40:00,
2013-08-18 20:43:00,69.9,65.9,30.10,WSW,253,0.0,0.0,87,0.00,,---,0.01,VWS V14.01,2013-08-19 00:43:00,
2013-08-18 20:48:00,69.9,65.9,30.10,WSW,253,0.0,0.0,87,0.00,,---,0.01,VWS V14.01,2013-08-19 00:48:00,
2013-08-18 20:50:00,69.9,65.9,30.10,WSW,252,0.0,0.0,87,0.00,,---,0.01,VWS V14.01,2013-08-19 00:50:00,
2013-08-18 20:53:00,69.9,65.9,30.10,WSW,253,0.0,0.0,87,0.00,,---,0.01,VWS V14.01,2013-08-19 00:53:00,
2013-08-18 20:58:00,69.8,65.8,30.10,WSW,253,0.0,0.0,87,0.00,,---,0.01,VWS V14.01,2013-08-19 00:58:00,
2013-08-18 21:00:00,69.8,65.8,30.10,WSW,253,0.0,0.0,87,0.00,,---,0.01,VWS V14.01,2013-08-19 01:00:00,
2013-08-18 21:03:00,69.7,65.7,30.10,WSW,252,0.0,0.0,87,0.00,,---,0.01,VWS V14.01,2013-08-19 01:03:00,
2013-08-18 21:08:00,69.7,66.0,30.10,WSW,253,0.0,0.0,88,0.00,,---,0.01,VWS V14.01,2013-08-19 01:08:00,
2013-08-18 21:10:00,69.7,66.0,30.10,WSW,252,0.0,0.0,88,0.00,,---,0.01,VWS V14.01,2013-08-19 01:10:00,
2013-08-18 21:13:00,69.7,66.0,30.10,WSW,252,0.0,0.0,88,0.00,,---,0.01,VWS V14.01,2013-08-19 01:13:00,
2013-08-18 21:18:00,69.7,66.0,30.10,WSW,253,0.0,0.0,88,0.00,,---,0.01,VWS V14.01,2013-08-19 01:18:00,
2013-08-18 21:20:00,69.7,66.0,30.10,WSW,253,0.0,0.0,88,0.00,,---,0.01,VWS V14.01,2013-08-19 01:20:00,
2013-08-18 21:23:00,69.7,66.0,30.10,WSW,253,0.0,0.0,88,0.00,,---,0.01,VWS V14.01,2013-08-19 01:23:00,
2013-08-18 21:28:00,69.6,65.9,30.10,WSW,253,0.0,0.0,88,0.00,,---,0.01,VWS V14.01,2013-08-19 01:28:00,
2013-08-18 21:30:00,69.6,65.9,30.10,WSW,253,0.0,0.0,88,0.00,,---,0.01,VWS V14.01,2013-08-19 01:30:00,
2013-08-18 21:33:00,69.6,65.6,30.10,WSW,253,0.0,0.0,87,0.00,,---,0.01,VWS V14.01,2013-08-19 01:33:00,
2013-08-18 21:38:00,69.7,66.3,30.10,WSW,252,0.0,0.0,89,0.00,,---,0.01,VWS V14.01,2013-08-19 01:38:00,
2013-08-18 21:40:00,69.7,66.3,30.10,WSW,252,0.0,0.0,89,0.00,,---,0.01,VWS V14.01,2013-08-19 01:40:00,
2013-08-18 21:43:00,69.7,66.3,30.10,WSW,252,0.0,0.0,89,0.00,,---,0.01,VWS V14.01,2013-08-19 01:43:00,
2013-08-18 21:48:00,69.6,66.2,30.10,WSW,253,0.0,0.0,89,0.00,,---,0.01,VWS V14.01,2013-08-19 01:48:00,
2013-08-18 21:50:00,69.6,66.2,30.10,WSW,253,0.0,0.0,89,0.00,,---,0.01,VWS V14.01,2013-08-19 01:50:00,
2013-08-18 21:53:00,69.5,66.1,30.11,WSW,253,0.0,0.0,89,0.00,,---,0.01,VWS V14.01,2013-08-19 01:53:00,
2013-08-18 22:00:00,69.8,65.8,30.10,WSW,253,0.0,0.0,87,0.00,,---,0.01,VWS V14.01,2013-08-19 02:00:00,
2013-08-18 22:10:00,69.7,66.0,30.10,WSW,252,0.0,0.0,88,0.00,,---,0.01,VWS V14.01,2013-08-19 02:10:00,
2013-08-18 22:50:00,69.6,66.2,30.10,WSW,253,0.0,0.0,89,0.00,,---,0.01,VWS V14.01,2013-08-19 02:50:00,